Time;durP1;ratioP1;P1;durP2;ratioP2;P2;SDS_P1;SDS_P2;PMS_P1;PMS_P2;Temp;Humidity;BMP_temperature;BMP_pressure;BME280_temperature;BME280_humidity;BME280_pressure;Samples;Min_cycle;Max_cycle;Signal;HPM_P1;HPM_P2
2023/12/27 00:01:43;;;;;;;23.37;2.87;;;;;;;3.72;100.00;101096.59;5009636;28;20037;-75
2023/12/27 00:04:08;;;;;;;14.93;2.35;;;;;;;3.64;100.00;101096.31;5026045;28;20116;-75
2023/12/27 00:06:34;;;;;;;17.55;3.90;;;;;;;3.73;100.00;101098.28;5027289;28;20025;-75
2023/12/27 00:09:00;;;;;;;15.38;3.03;;;;;;;3.57;100.00;101093.25;5015220;28;20431;-75
2023/12/27 00:11:26;;;;;;;14.18;2.05;;;;;;;3.63;100.00;101105.16;5009802;28;20487;-75
2023/12/27 00:13:51;;;;;;;9.35;2.08;;;;;;;3.65;100.00;101117.31;4993577;28;20029;-75
2023/12/27 00:16:17;;;;;;;9.40;2.37;;;;;;;3.71;100.00;101113.41;5027493;28;20029;-75
2023/12/27 00:18:42;;;;;;;17.33;3.70;;;;;;;3.71;100.00;101127.44;5027679;28;20299;-75
2023/12/27 00:21:07;;;;;;;20.77;1.85;;;;;;;3.70;100.00;101122.25;5009651;28;20030;-75
2023/12/27 00:23:33;;;;;;;12.35;2.08;;;;;;;3.64;100.00;101115.63;5009581;28;20530;-74
2023/12/27 00:25:58;;;;;;;12.20;1.98;;;;;;;3.72;100.00;101123.00;5026161;28;20036;-74
2023/12/27 00:28:23;;;;;;;16.02;2.75;;;;;;;3.74;100.00;101123.75;5010077;28;20435;-75
2023/12/27 00:30:51;;;;;;;19.73;3.20;;;;;;;3.64;100.00;101120.06;5009724;28;20037;-75
2023/12/27 00:33:17;;;;;;;11.95;2.28;;;;;;;3.63;100.00;101124.50;5009132;28;20283;-74
2023/12/27 00:35:42;;;;;;;15.63;2.42;;;;;;;3.64;100.00;101118.25;5027271;28;20037;-75
2023/12/27 00:38:09;;;;;;;15.93;3.13;;;;;;;3.67;100.00;101136.53;5026272;28;20180;-75
2023/12/27 00:40:34;;;;;;;10.82;1.70;;;;;;;3.64;100.00;101134.09;5025685;28;20104;-75
2023/12/27 00:43:00;;;;;;;10.45;2.20;;;;;;;3.62;100.00;101136.00;5017291;28;20169;-75
2023/12/27 00:45:25;;;;;;;12.05;2.40;;;;;;;3.70;100.00;101136.34;5005516;28;20107;-75
2023/12/27 00:47:52;;;;;;;10.87;2.33;;;;;;;3.71;100.00;101127.44;5026763;28;20520;-75
2023/12/27 00:50:19;;;;;;;15.15;2.40;;;;;;;3.56;100.00;101118.81;5009084;28;20288;-75
2023/12/27 00:52:44;;;;;;;17.27;3.20;;;;;;;3.54;100.00;101119.88;5012589;28;20393;-75
2023/12/27 00:55:09;;;;;;;11.17;1.77;;;;;;;3.55;100.00;101121.56;5009162;28;20041;-76
2023/12/27 00:57:35;;;;;;;15.65;2.65;;;;;;;3.59;100.00;101138.88;5017667;28;20025;-75
2023/12/27 01:00:00;;;;;;;22.47;3.80;;;;;;;3.61;100.00;101142.25;5008960;28;20695;-75
2023/12/27 01:02:25;;;;;;;5.18;1.33;;;;;;;3.48;100.00;101128.22;4992709;28;20307;-74
2023/12/27 01:04:55;;;;;;;26.38;2.80;;;;;;;3.56;100.00;101150.50;4992883;28;20034;-75
2023/12/27 01:07:22;;;;;;;10.25;1.55;;;;;;;3.65;100.00;101149.00;4993018;28;20416;-74
2023/12/27 01:09:47;;;;;;;16.85;3.50;;;;;;;3.66;100.00;101139.28;5009731;28;20044;-75
2023/12/27 01:12:13;;;;;;;8.98;1.80;;;;;;;3.69;100.00;101137.25;5025354;28;20021;-76
2023/12/27 01:14:38;;;;;;;9.95;1.73;;;;;;;3.68;100.00;101127.66;5009092;28;20029;-75
2023/12/27 01:17:04;;;;;;;15.70;2.60;;;;;;;3.67;100.00;101122.47;5026545;28;20396;-74
2023/12/27 01:19:29;;;;;;;13.57;3.15;;;;;;;3.60;100.00;101106.22;5009048;28;20037;-75
2023/12/27 01:21:54;;;;;;;18.48;2.05;;;;;;;3.52;100.00;101095.38;5026449;28;20018;-74
2023/12/27 01:24:20;;;;;;;9.97;1.80;;;;;;;3.53;100.00;101108.44;5008697;28;20041;-74
2023/12/27 01:26:45;;;;;;;15.75;1.83;;;;;;;3.53;100.00;101107.63;5030272;28;20286;-75
2023/12/27 01:29:11;;;;;;;8.55;2.45;;;;;;;3.42;100.00;101121.59;5024917;28;20041;-75
2023/12/27 01:31:36;;;;;;;11.27;1.95;;;;;;;3.32;100.00;101117.88;5008536;28;20021;-75
2023/12/27 01:34:02;;;;;;;10.40;1.60;;;;;;;3.44;100.00;101142.56;5004486;28;20412;-74
2023/12/27 01:36:27;;;;;;;6.57;1.50;;;;;;;3.29;100.00;101132.13;5008555;28;20152;-75
2023/12/27 01:38:52;;;;;;;15.63;1.97;;;;;;;3.28;100.00;101146.28;5008530;28;20399;-74
2023/12/27 01:41:18;;;;;;;14.03;1.80;;;;;;;3.18;100.00;101145.22;5020352;28;20132;-75
2023/12/27 01:43:43;;;;;;;15.90;2.00;;;;;;;3.22;100.00;101162.53;4997932;28;20287;-75
2023/12/27 01:46:09;;;;;;;8.27;2.60;;;;;;;3.15;100.00;101156.00;5022605;28;20283;-75
2023/12/27 01:48:36;;;;;;;13.93;2.72;;;;;;;3.21;100.00;101181.97;5008587;28;20647;-75
2023/12/27 01:51:01;;;;;;;19.50;2.65;;;;;;;3.17;100.00;101167.28;5024215;28;20041;-74
2023/12/27 01:53:27;;;;;;;17.40;2.75;;;;;;;3.24;100.00;101181.75;5018302;28;20071;-75
2023/12/27 01:55:54;;;;;;;10.43;3.35;;;;;;;3.15;100.00;101163.91;5002962;28;20033;-75
2023/12/27 01:58:22;;;;;;;13.50;1.77;;;;;;;3.10;100.00;101158.94;5008388;28;20039;-75
2023/12/27 02:00:48;;;;;;;12.50;2.60;;;;;;;3.04;100.00;101169.06;5008544;28;20038;-77
2023/12/27 02:03:14;;;;;;;18.67;2.50;;;;;;;3.03;100.00;101172.66;5008253;28;20037;-75
2023/12/27 02:05:44;;;;;;;10.70;1.80;;;;;;;3.05;100.00;101179.50;5007844;28;20443;-75
2023/12/27 02:08:11;;;;;;;13.48;1.92;;;;;;;3.05;100.00;101187.44;5008231;28;20034;-75
2023/12/27 02:10:37;;;;;;;14.18;2.10;;;;;;;3.09;100.00;101181.00;5024867;28;20037;-75
2023/12/27 02:13:04;;;;;;;14.77;2.25;;;;;;;3.01;100.00;101175.38;5024586;28;20044;-75
2023/12/27 02:15:29;;;;;;;11.38;1.80;;;;;;;3.06;100.00;101183.00;4991860;28;20412;-76
2023/12/27 02:17:56;;;;;;;15.15;2.13;;;;;;;2.92;100.00;101174.19;5008284;28;20041;-74
2023/12/27 02:20:22;;;;;;;32.42;2.92;;;;;;;2.93;100.00;101180.34;5041737;23;20167;-76
2023/12/27 02:22:50;;;;;;;23.98;3.33;;;;;;;3.01;100.00;101200.94;5027760;28;20037;-76
2023/12/27 02:25:16;;;;;;;11.27;2.05;;;;;;;3.06;100.00;101206.72;5027657;28;20337;-75
2023/12/27 02:27:41;;;;;;;15.20;2.78;;;;;;;3.07;100.00;101211.09;5028175;28;20095;-76
2023/12/27 02:30:07;;;;;;;12.95;1.35;;;;;;;3.03;100.00;101206.94;5033830;28;20037;-77
2023/12/27 02:32:32;;;;;;;9.07;1.67;;;;;;;3.14;100.00;101209.72;5036834;28;20471;-75
2023/12/27 02:34:57;;;;;;;20.00;3.40;;;;;;;3.12;100.00;101206.34;5036440;28;20047;-76
2023/12/27 02:37:23;;;;;;;19.63;2.13;;;;;;;3.00;100.00;101193.94;5044350;28;20391;-76
2023/12/27 02:39:50;;;;;;;16.40;1.85;;;;;;;3.00;100.00;101193.94;5048182;28;20074;-75
2023/12/27 02:42:15;;;;;;;11.70;1.95;;;;;;;2.99;100.00;101194.91;5031281;28;20515;-76
2023/12/27 02:44:41;;;;;;;18.48;3.20;;;;;;;2.98;100.00;101191.44;5051990;28;20395;-75
2023/12/27 02:47:07;;;;;;;19.00;2.60;;;;;;;2.93;100.00;101183.81;5028142;28;20024;-76
2023/12/27 02:49:32;;;;;;;17.40;2.05;;;;;;;2.82;100.00;101178.41;5045792;28;20065;-75
2023/12/27 02:51:57;;;;;;;12.43;2.93;;;;;;;2.82;100.00;101186.31;5038932;28;20075;-75
2023/12/27 02:54:23;;;;;;;7.97;1.80;;;;;;;2.83;100.00;101195.06;5035799;28;20283;-76
2023/12/27 02:56:48;;;;;;;24.58;2.10;;;;;;;2.82;100.00;101202.16;5028051;28;20036;-76
2023/12/27 02:59:13;;;;;;;17.67;2.28;;;;;;;2.87;100.00;101220.31;5046099;28;20394;-75
2023/12/27 03:01:40;;;;;;;;;;;;;;;2.77;100.00;101213.94;5048229;28;20028;-76
2023/12/27 03:04:05;;;;;;;18.17;2.15;;;;;;;2.82;100.00;101219.78;5038481;28;19947;-76
2023/12/27 03:06:30;;;;;;;13.80;2.33;;;;;;;2.87;100.00;101229.06;5060823;28;20368;-76
2023/12/27 03:08:56;;;;;;;11.05;2.55;;;;;;;2.81;100.00;101221.56;5027213;28;20290;-76
2023/12/27 03:11:21;;;;;;;12.32;1.55;;;;;;;2.79;100.00;101212.06;5030814;28;20037;-76
2023/12/27 03:13:47;;;;;;;15.73;2.63;;;;;;;2.86;100.00;101234.44;5024552;28;20617;-76
2023/12/27 03:16:12;;;;;;;9.85;1.85;;;;;;;2.82;100.00;101243.50;5036777;28;20283;-75
2023/12/27 03:18:38;;;;;;;10.90;1.55;;;;;;;2.84;100.00;101238.97;5044460;28;20408;-75
2023/12/27 03:21:04;;;;;;;;;;;;;;;2.82;100.00;101238.22;5037343;28;20116;-76
2023/12/27 03:23:29;;;;;;;15.15;2.10;;;;;;;2.75;100.00;101235.97;5042892;28;19995;-76
2023/12/27 03:25:55;;;;;;;11.98;2.67;;;;;;;2.76;100.00;101250.00;5052732;28;20865;-75
2023/12/27 03:28:22;;;;;;;12.48;2.28;;;;;;;2.65;100.00;101241.97;5047716;28;20033;-75
2023/12/27 03:30:48;;;;;;;20.15;2.40;;;;;;;2.67;100.00;101254.09;5054229;28;20056;-75
2023/12/27 03:33:14;;;;;;;11.82;1.58;;;;;;;2.69;100.00;101260.13;5048691;28;20064;-76
2023/12/27 03:35:39;;;;;;;16.53;3.37;;;;;;;2.72;100.00;101267.81;5041112;28;20036;-75
2023/12/27 03:38:05;;;;;;;15.40;2.17;;;;;;;2.72;100.00;101269.63;5050496;28;21100;-76
2023/12/27 03:40:30;;;;;;;11.00;2.38;;;;;;;2.72;100.00;101288.09;5026246;28;20294;-75
2023/12/27 03:42:56;;;;;;;9.35;1.67;;;;;;;2.74;100.00;101294.09;5042245;28;20040;-75
2023/12/27 03:45:21;;;;;;;14.10;3.78;;;;;;;2.75;100.00;101301.06;5025950;28;20036;-75
2023/12/27 03:47:46;;;;;;;26.70;5.07;;;;;;;2.61;100.00;101278.22;5058645;28;20052;-76
2023/12/27 03:50:12;;;;;;;15.85;2.38;;;;;;;2.71;100.00;101292.50;5050396;28;20039;-76
2023/12/27 03:52:38;;;;;;;15.75;2.25;;;;;;;2.73;100.00;101302.94;5056731;28;20115;-75
2023/12/27 03:55:05;;;;;;;20.98;5.18;;;;;;;2.78;100.00;101314.03;5025485;28;20043;-76
2023/12/27 03:57:30;;;;;;;18.30;2.80;;;;;;;2.76;100.00;101318.56;5053445;28;20340;-75
2023/12/27 03:59:56;;;;;;;16.45;2.65;;;;;;;2.67;100.00;101311.22;5042869;28;20044;-76
2023/12/27 04:02:21;;;;;;;18.88;2.65;;;;;;;2.72;100.00;101317.94;5039594;28;20041;-75
2023/12/27 04:04:47;;;;;;;12.65;3.20;;;;;;;2.68;100.00;101320.84;5050046;28;20024;-75
2023/12/27 04:07:13;;;;;;;10.60;1.70;;;;;;;2.67;100.00;101321.78;5066567;28;20036;-75
2023/12/27 04:09:39;;;;;;;14.27;2.78;;;;;;;2.65;100.00;101328.97;5050402;28;20673;-75
2023/12/27 04:12:06;;;;;;;11.75;2.05;;;;;;;2.58;100.00;101330.31;5041291;28;20037;-76
2023/12/27 04:14:32;;;;;;;10.80;2.17;;;;;;;2.60;100.00;101333.66;5068055;28;20098;-75
2023/12/27 04:16:57;;;;;;;13.27;3.42;;;;;;;2.54;100.00;101333.09;5033564;28;20115;-75
2023/12/27 04:19:23;;;;;;;9.33;2.17;;;;;;;2.50;100.00;101328.97;5041355;28;20031;-76
2023/12/27 04:21:48;;;;;;;13.18;2.13;;;;;;;2.57;100.00;101339.13;5049515;28;20271;-76
2023/12/27 04:24:13;;;;;;;13.23;2.55;;;;;;;2.48;100.00;101325.59;5037822;28;20419;-75
2023/12/27 04:26:40;;;;;;;17.73;3.00;;;;;;;2.45;100.00;101319.66;5029828;28;20037;-75
2023/12/27 04:29:07;;;;;;;12.35;2.05;;;;;;;2.44;100.00;101313.56;5046137;28;20032;-75
2023/12/27 04:31:32;;;;;;;12.95;3.13;;;;;;;2.44;100.00;101310.06;5024959;28;20171;-75
2023/12/27 04:33:57;;;;;;;14.48;2.67;;;;;;;2.46;100.00;101316.94;5049791;28;20119;-75
2023/12/27 04:36:23;;;;;;;13.55;2.08;;;;;;;2.38;100.00;101307.81;5052662;28;20039;-75
2023/12/27 04:38:49;;;;;;;21.42;2.28;;;;;;;2.30;100.00;101300.41;5040370;28;20036;-75
2023/12/27 04:41:15;;;;;;;19.67;2.88;;;;;;;2.20;100.00;101299.25;5048032;28;20143;-75
2023/12/27 04:43:40;;;;;;;18.73;3.08;;;;;;;2.20;100.00;101304.53;5067294;28;20044;-75
2023/12/27 04:46:07;;;;;;;17.38;3.15;;;;;;;2.10;100.00;101305.09;5049158;28;20044;-75
2023/12/27 04:48:33;;;;;;;8.65;1.80;;;;;;;2.02;100.00;101294.19;5055045;28;20475;-75
2023/12/27 04:50:58;;;;;;;;;;;;;;;2.02;100.00;101302.09;5029915;28;20423;-75
2023/12/27 04:53:24;;;;;;;23.10;3.65;;;;;;;1.96;100.00;101297.19;5065966;28;19920;-75
2023/12/27 04:55:50;;;;;;;16.65;1.92;;;;;;;1.86;100.00;101282.91;5068358;28;20054;-76
2023/12/27 04:58:15;;;;;;;15.57;2.45;;;;;;;1.80;100.00;101286.75;5050422;28;20123;-75
2023/12/27 05:00:41;;;;;;;18.37;2.67;;;;;;;1.84;100.00;101298.78;5061969;28;20028;-75
2023/12/27 05:03:07;;;;;;;31.23;3.72;;;;;;;1.81;100.00;101300.78;5045608;28;20768;-75
2023/12/27 05:05:33;;;;;;;13.52;2.60;;;;;;;1.79;100.00;101305.28;5041217;28;20083;-75
2023/12/27 05:07:58;;;;;;;18.30;2.45;;;;;;;1.84;100.00;101319.00;5049130;28;20445;-76
2023/12/27 05:10:24;;;;;;;7.57;1.60;;;;;;;1.85;100.00;101324.19;5037685;28;20033;-75
2023/12/27 05:12:49;;;;;;;12.45;1.70;;;;;;;1.94;100.00;101335.09;5043121;28;20446;-75
2023/12/27 05:15:14;;;;;;;13.32;3.30;;;;;;;2.10;100.00;101363.03;5048711;28;20025;-76
2023/12/27 05:17:40;;;;;;;15.43;2.10;;;;;;;2.17;100.00;101363.53;5060096;28;20090;-76
2023/12/27 05:20:06;;;;;;;15.05;2.28;;;;;;;2.20;100.00;101368.63;5023827;28;20127;-76
2023/12/27 05:22:34;;;;;;;;;;;;;;;2.20;100.00;101376.53;5058712;28;20118;-75
2023/12/27 05:25:01;;;;;;;22.40;2.95;;;;;;;2.18;100.00;101369.63;5048919;28;19962;-76
2023/12/27 05:27:27;;;;;;;18.48;2.33;;;;;;;2.13;100.00;101353.25;5048749;28;20032;-75
2023/12/27 05:29:52;;;;;;;18.83;3.42;;;;;;;2.17;100.00;101373.22;5042192;28;20032;-75
2023/12/27 05:32:18;;;;;;;16.80;3.22;;;;;;;2.11;100.00;101371.81;5054285;28;20054;-75
2023/12/27 05:34:43;;;;;;;11.43;1.93;;;;;;;2.07;100.00;101365.88;5050716;28;20063;-76
2023/12/27 05:37:09;;;;;;;23.35;2.67;;;;;;;2.11;100.00;101370.03;5035941;28;20634;-75
2023/12/27 05:39:34;;;;;;;12.35;2.60;;;;;;;2.16;100.00;101384.72;5047263;28;20028;-76
2023/12/27 05:42:00;;;;;;;14.45;2.17;;;;;;;2.16;100.00;101392.63;5061205;28;20070;-76
2023/12/27 05:44:25;;;;;;;15.67;1.90;;;;;;;2.17;100.00;101391.66;5062687;28;20716;-76
2023/12/27 05:46:50;;;;;;;24.30;4.60;;;;;;;2.20;100.00;101402.00;5041289;28;20408;-75
2023/12/27 05:49:16;;;;;;;15.93;3.42;;;;;;;2.28;100.00;101413.78;5028466;28;20024;-75
2023/12/27 05:51:41;;;;;;;13.43;2.22;;;;;;;2.28;100.00;101418.22;5064981;28;20436;-75
2023/12/27 05:54:07;;;;;;;19.73;1.90;;;;;;;2.20;100.00;101404.63;5038479;28;20041;-75
2023/12/27 05:56:32;;;;;;;13.50;2.35;;;;;;;2.28;100.00;101412.94;5043824;28;20033;-75
2023/12/27 05:58:58;;;;;;;19.33;2.17;;;;;;;2.25;100.00;101413.97;5052236;28;20042;-76
2023/12/27 06:01:23;;;;;;;12.95;1.80;;;;;;;2.18;100.00;101407.38;5056836;28;20150;-76
2023/12/27 06:03:48;;;;;;;16.08;3.22;;;;;;;2.14;100.00;101405.03;5075249;28;20121;-76
2023/12/27 06:06:14;;;;;;;21.92;2.67;;;;;;;1.87;100.00;101372.34;5046173;28;20032;-76
2023/12/27 06:08:39;;;;;;;25.45;2.97;;;;;;;1.83;100.00;101385.78;5057926;28;20031;-75
2023/12/27 06:11:11;;;;;;;16.85;2.78;;;;;;;1.97;100.00;101404.25;5048713;28;20040;-76
2023/12/27 06:13:38;;;;;;;17.08;3.88;;;;;;;2.09;100.00;101408.78;5061289;28;20036;-75
2023/12/27 06:16:03;;;;;;;18.45;4.68;;;;;;;2.16;100.00;101409.25;5047601;28;20021;-75
2023/12/27 06:18:29;;;;;;;21.75;5.63;;;;;;;2.24;100.00;101414.91;5047178;28;20029;-75
2023/12/27 06:20:54;;;;;;;15.47;3.43;;;;;;;2.22;100.00;101413.31;5063849;28;20028;-75
2023/12/27 06:23:20;;;;;;;15.55;3.70;;;;;;;2.23;100.00;101421.13;5047065;28;20274;-75
2023/12/27 06:25:45;;;;;;;26.10;3.00;;;;;;;2.16;100.00;101403.16;5022469;28;20520;-76
2023/12/27 06:28:10;;;;;;;17.80;2.63;;;;;;;2.15;100.00;101406.72;5046163;28;20086;-75
2023/12/27 06:30:36;;;;;;;20.15;3.72;;;;;;;2.17;100.00;101410.09;5039646;28;20035;-75
2023/12/27 06:33:02;;;;;;;12.88;4.13;;;;;;;2.13;100.00;101413.84;5022246;28;20054;-75
2023/12/27 06:35:27;;;;;;;23.95;3.15;;;;;;;2.13;100.00;101425.25;5030232;28;20017;-75
2023/12/27 06:37:52;;;;;;;18.30;3.42;;;;;;;2.11;100.00;101420.06;5039125;28;20037;-75
2023/12/27 06:40:18;;;;;;;13.30;3.00;;;;;;;2.05;100.00;101423.06;5044898;28;20028;-75
2023/12/27 06:42:43;;;;;;;16.83;3.95;;;;;;;2.12;100.00;101423.56;5056811;28;20039;-75
2023/12/27 06:45:09;;;;;;;21.17;4.20;;;;;;;2.14;100.00;101432.22;5022462;28;20658;-75
2023/12/27 06:47:34;;;;;;;24.40;4.20;;;;;;;2.09;100.00;101427.22;5035315;28;20032;-75
2023/12/27 06:49:59;;;;;;;22.40;4.60;;;;;;;2.05;100.00;101430.97;5025704;28;20045;-76
2023/12/27 06:52:25;;;;;;;29.10;6.00;;;;;;;2.10;100.00;101434.16;5050482;28;20303;-75
2023/12/27 06:54:50;;;;;;;10.85;3.80;;;;;;;2.13;100.00;101437.56;5044869;28;20761;-75
2023/12/27 06:57:15;;;;;;;26.70;5.28;;;;;;;2.05;100.00;101424.84;5066835;28;20487;-75
2023/12/27 06:59:41;;;;;;;24.30;4.45;;;;;;;2.03;100.00;101432.84;5055870;28;20037;-76
2023/12/27 07:02:07;;;;;;;29.58;4.47;;;;;;;2.03;100.00;101432.84;5052606;28;20036;-75
2023/12/27 07:04:33;;;;;;;34.78;5.28;;;;;;;2.04;100.00;101433.72;5030528;28;20091;-76
2023/12/27 07:06:58;;;;;;;23.00;5.72;;;;;;;2.05;100.00;101438.88;5049330;28;20036;-76
2023/12/27 07:09:24;;;;;;;30.15;6.13;;;;;;;2.06;100.00;101435.31;5066988;28;20037;-75
2023/12/27 07:11:49;;;;;;;20.92;5.50;;;;;;;2.06;100.00;101442.34;5050578;28;20040;-76
2023/12/27 07:14:14;;;;;;;17.65;5.82;;;;;;;2.13;100.00;101456.88;5060074;28;20845;-75
2023/12/27 07:16:40;;;;;;;36.58;5.68;;;;;;;2.12;100.00;101444.63;5068389;28;20557;-75
2023/12/27 07:19:05;;;;;;;23.23;6.20;;;;;;;2.40;100.00;101464.91;5033678;28;20479;-75
2023/12/27 07:21:31;;;;;;;17.48;5.28;;;;;;;2.38;100.00;101465.94;5049701;28;20037;-75
2023/12/27 07:23:56;;;;;;;29.83;7.38;;;;;;;2.29;100.00;101456.78;5043940;28;20029;-74
2023/12/27 07:26:22;;;;;;;31.60;6.93;;;;;;;2.29;100.00;101464.69;5063918;28;20518;-75
2023/12/27 07:28:47;;;;;;;28.15;8.15;;;;;;;2.27;100.00;101463.94;5041982;28;20174;-75
2023/12/27 07:31:13;;;;;;;36.58;8.38;;;;;;;2.26;100.00;101462.25;5049429;28;20036;-75
2023/12/27 07:33:38;;;;;;;35.85;8.52;;;;;;;2.05;100.00;101451.19;5021044;28;20026;-75
2023/12/27 07:36:04;;;;;;;42.92;8.35;;;;;;;2.07;100.00;101452.78;5063920;28;20475;-74
2023/12/27 07:38:30;;;;;;;28.42;8.93;;;;;;;2.01;100.00;101455.78;5060414;28;20864;-74
2023/12/27 07:40:56;;;;;;;26.15;7.47;;;;;;;2.14;100.00;101463.81;5068848;28;20028;-75
2023/12/27 07:43:22;;;;;;;41.45;9.75;;;;;;;2.01;100.00;101462.84;5053315;28;20031;-76
2023/12/27 07:45:48;;;;;;;26.75;9.20;;;;;;;1.96;100.00;101457.84;5050119;28;20037;-75
2023/12/27 07:48:13;;;;;;;25.63;8.77;;;;;;;2.10;100.00;101457.88;5041131;28;20403;-76
2023/12/27 07:50:40;;;;;;;41.92;11.07;;;;;;;2.17;100.00;101468.06;5041903;28;20462;-75
2023/12/27 07:53:06;;;;;;;24.27;8.73;;;;;;;2.19;100.00;101460.91;5048731;28;20541;-75
2023/12/27 07:55:31;;;;;;;33.58;10.45;;;;;;;2.29;100.00;101462.94;5049163;28;20400;-76
2023/12/27 07:57:57;;;;;;;17.65;7.75;;;;;;;2.35;100.00;101464.34;5061451;28;20037;-74
2023/12/27 08:00:22;;;;;;;37.67;10.27;;;;;;;2.31;100.00;101454.91;5065748;28;20025;-76
2023/12/27 08:02:49;;;;;;;30.13;10.20;;;;;;;2.36;100.00;101460.75;5053947;28;20120;-75
2023/12/27 08:05:15;;;;;;;30.08;9.20;;;;;;;2.35;100.00;101460.84;5040058;28;20785;-76
2023/12/27 08:07:41;;;;;;;23.17;8.35;;;;;;;2.30;100.00;101458.50;5042226;28;20044;-76
2023/12/27 08:10:07;;;;;;;31.65;7.30;;;;;;;2.34;100.00;101467.91;5064400;28;20078;-76
2023/12/27 08:12:32;;;;;;;32.25;8.20;;;;;;;2.35;100.00;101472.25;5049343;28;20064;-76
2023/12/27 08:14:58;;;;;;;31.75;9.48;;;;;;;2.38;100.00;101465.94;5067227;28;20033;-75
2023/12/27 08:17:23;;;;;;;29.60;8.57;;;;;;;2.28;100.00;101455.09;5049019;28;20036;-75
2023/12/27 08:19:48;;;;;;;25.05;7.82;;;;;;;2.36;100.00;101459.91;5047864;23;20041;-75
2023/12/27 08:22:14;;;;;;;34.95;7.60;;;;;;;2.28;100.00;101465.66;5059572;28;20024;-76
2023/12/27 08:24:39;;;;;;;37.00;10.40;;;;;;;2.35;100.00;101466.97;5054681;28;20050;-76
2023/12/27 08:27:05;;;;;;;21.38;7.40;;;;;;;2.40;100.00;101470.16;5063500;28;20043;-76
2023/12/27 08:29:30;;;;;;;19.73;7.00;;;;;;;2.45;100.00;101478.66;5086895;28;20050;-75
2023/12/27 08:31:55;;;;;;;29.65;9.45;;;;;;;2.47;100.00;101484.69;5068428;28;20108;-75
2023/12/27 08:34:21;;;;;;;31.02;9.65;;;;;;;2.65;100.00;101495.06;5050822;28;20561;-76
2023/12/27 08:36:48;;;;;;;23.48;8.77;;;;;;;2.51;100.00;101478.28;5057164;28;20040;-75
2023/12/27 08:39:14;;;;;;;31.98;7.80;;;;;;;2.64;100.00;101483.66;5051243;28;20032;-75
2023/12/27 08:41:40;;;;;;;23.63;7.53;;;;;;;2.62;100.00;101474.16;5056086;28;20036;-75
2023/12/27 08:44:05;;;;;;;31.75;7.53;;;;;;;2.61;100.00;101467.19;5064543;28;20036;-76
2023/12/27 08:46:31;;;;;;;26.05;8.75;;;;;;;2.47;100.00;101454.84;5083775;28;20047;-75
2023/12/27 08:48:56;;;;;;;30.02;7.10;;;;;;;2.36;100.00;101439.66;5068071;28;20130;-75
2023/12/27 08:51:21;;;;;;;26.38;9.45;;;;;;;2.53;100.00;101460.59;5076863;28;20032;-75
2023/12/27 08:53:47;;;;;;;29.92;8.80;;;;;;;2.69;100.00;101470.19;5039813;28;20177;-75
2023/12/27 08:56:12;;;;;;;41.15;9.48;;;;;;;2.77;100.00;101465.31;5039640;28;20059;-75
2023/12/27 08:58:38;;;;;;;34.17;6.70;;;;;;;2.75;100.00;101460.13;5085921;28;20256;-76
2023/12/27 09:01:03;;;;;;;16.77;7.00;;;;;;;2.96;100.00;101478.19;5047575;28;20036;-76
2023/12/27 09:03:29;;;;;;;23.15;6.88;;;;;;;3.27;100.00;101492.09;5081933;28;20035;-75
2023/12/27 09:05:54;;;;;;;27.48;8.48;;;;;;;3.72;100.00;101506.81;5080372;28;20036;-75
2023/12/27 09:08:20;;;;;;;27.08;10.75;;;;;;;3.76;100.00;101481.03;5059209;28;20039;-76
2023/12/27 09:10:45;;;;;;;24.40;10.30;;;;;;;4.06;100.00;101472.88;5067686;28;20483;-76
2023/12/27 09:13:11;;;;;;;20.45;7.75;;;;;;;4.22;100.00;101449.75;5085666;28;20121;-76
2023/12/27 09:15:36;;;;;;;23.65;7.22;;;;;;;3.95;100.00;101417.25;5082433;28;20046;-76
2023/12/27 09:18:01;;;;;;;21.03;7.90;;;;;;;4.08;100.00;101404.06;5054959;28;20046;-75
2023/12/27 09:20:27;;;;;;;20.17;7.57;;;;;;;4.29;100.00;101415.81;5057124;28;20033;-76
2023/12/27 09:22:52;;;;;;;29.45;7.78;;;;;;;4.68;100.00;101419.25;5079465;28;20176;-76
2023/12/27 09:25:18;;;;;;;12.35;5.85;;;;;;;4.70;100.00;101382.13;5048784;28;20085;-75
2023/12/27 09:27:44;;;;;;;16.40;4.93;;;;;;;4.38;100.00;101329.75;5063441;28;20033;-76
2023/12/27 09:30:10;;;;;;;15.15;6.20;;;;;;;4.02;100.00;101291.69;5082051;28;20103;-76
2023/12/27 09:32:37;;;;;;;16.60;5.60;;;;;;;4.38;100.00;101337.69;5056404;28;20718;-76
2023/12/27 09:35:02;;;;;;;;;;;;;;;4.75;100.00;101340.31;5067796;28;20031;-75
2023/12/27 09:37:28;;;;;;;16.52;5.57;;;;;;;5.06;100.00;101331.03;5065327;28;20305;-76
2023/12/27 09:39:54;;;;;;;18.33;5.18;;;;;;;4.95;100.00;101293.91;5080255;28;20073;-76
2023/12/27 09:42:19;;;;;;;27.92;6.40;;;;;;;4.92;100.00;101284.41;5048989;28;20131;-76
2023/12/27 09:44:48;;;;;;;19.73;6.75;;;;;;;3.74;100.00;101180.03;5044104;28;20456;-76
2023/12/27 09:47:15;;;;;;;24.42;6.10;;;;;;;4.01;100.00;101282.94;5048061;28;20590;-76
2023/12/27 09:49:41;;;;;;;23.58;9.25;;;;;;;4.30;100.00;101308.28;5077012;28;20027;-75
2023/12/27 09:52:07;;;;;;;21.55;7.70;;;;;;;4.45;100.00;101280.75;5062545;28;20077;-76
2023/12/27 09:54:32;;;;;;;16.52;5.18;;;;;;;4.61;100.00;101269.91;5043240;28;20104;-76
2023/12/27 09:56:59;;;;;;;15.48;5.10;;;;;;;4.79;100.00;101257.16;5044970;28;20537;-76
2023/12/27 09:59:28;;;;;;;;;;;;;;;5.07;100.00;101255.94;5065724;28;20234;-76
2023/12/27 10:01:59;;;;;;;14.52;4.03;;;;;;;4.82;100.00;101182.84;5060436;28;19966;-76
2023/12/27 10:04:42;;;;;;;15.63;4.40;;;;;;;4.98;100.00;101188.66;5061456;28;20085;-76
2023/12/27 10:07:09;;;;;;;15.30;4.82;;;;;;;4.40;100.00;101084.56;5062849;28;20562;-76
2023/12/27 10:09:34;;;;;;;13.65;4.70;;;;;;;4.23;100.00;101118.38;5049038;28;20032;-75
2023/12/27 10:12:01;;;;;;;10.90;4.63;;;;;;;4.35;100.00;101153.66;5044536;28;20058;-76
2023/12/27 10:14:28;;;;;;;19.20;4.93;;;;;;;4.47;100.00;101180.16;5061178;28;20478;-75
2023/12/27 10:16:54;;;;;;;16.40;5.30;;;;;;;4.69;100.00;101201.44;5075128;28;20040;-76
2023/12/27 10:19:45;;;;;;;19.30;5.07;;;;;;;4.31;100.00;101120.50;5081125;28;20399;-76
2023/12/27 10:22:12;;;;;;;15.30;5.40;;;;;;;4.30;100.00;101147.03;5056085;28;20756;-76
2023/12/27 10:24:38;;;;;;;14.27;5.22;;;;;;;4.20;100.00;101134.47;5079130;28;20037;-76
2023/12/27 10:27:05;;;;;;;12.52;3.85;;;;;;;4.14;100.00;101155.22;5078423;28;20390;-76
2023/12/27 10:29:32;;;;;;;16.73;4.72;;;;;;;4.25;100.00;101162.38;5078282;28;20036;-75
2023/12/27 10:32:01;;;;;;;;;;;;;;;4.16;100.00;101126.88;5064805;28;20038;-76
2023/12/27 10:34:27;;;;;;;15.32;4.03;;;;;;;4.05;100.00;101126.81;5060278;28;20334;-76
2023/12/27 10:36:58;;;;;;;15.65;4.80;;;;;;;3.93;100.00;101158.47;5056961;28;20544;-76
2023/12/27 10:39:25;;;;;;;19.65;5.80;;;;;;;4.25;100.00;101194.09;5064373;28;20039;-76
2023/12/27 10:41:54;;;;;;;17.35;4.70;;;;;;;4.14;100.00;101153.41;5084145;28;20054;-76
2023/12/27 10:44:20;;;;;;;20.13;4.78;;;;;;;4.18;100.00;101157.53;5070144;28;20040;-75
2023/12/27 10:46:46;;;;;;;38.13;5.80;;;;;;;4.04;100.00;101147.13;5075889;28;20392;-76
2023/12/27 10:49:15;;;;;;;15.35;4.30;;;;;;;4.04;100.00;101162.13;5042342;28;20044;-75
2023/12/27 10:51:42;;;;;;;16.48;4.82;;;;;;;3.85;100.00;101138.84;5061720;28;20028;-76
2023/12/27 10:54:08;;;;;;;;;;;;;;;3.84;100.00;101185.53;5081465;28;20483;-76
2023/12/27 10:56:39;;;;;;;14.98;3.90;;;;;;;3.66;100.00;101177.09;5064191;28;19918;-76
2023/12/27 10:59:08;;;;;;;10.60;4.25;;;;;;;3.74;100.00;101214.38;5063556;28;20117;-76
2023/12/27 11:01:44;;;;;;;14.77;4.90;;;;;;;3.80;100.00;101213.94;5045501;28;20035;-76
2023/12/27 11:04:11;;;;;;;13.27;4.18;;;;;;;3.73;100.00;101203.94;5082115;28;20040;-76
2023/12/27 11:06:39;;;;;;;17.48;4.50;;;;;;;3.62;100.00;101193.25;5069951;28;20020;-76
2023/12/27 11:09:09;;;;;;;22.98;6.57;;;;;;;3.42;100.00;101207.81;5039253;28;20615;-76
2023/12/27 11:11:38;;;;;;;23.77;6.60;;;;;;;3.67;100.00;101257.16;5049017;28;20056;-75
2023/12/27 11:14:05;;;;;;;25.75;6.03;;;;;;;3.76;100.00;101265.28;5065161;28;20040;-76